Time;durP1;ratioP1;P1;durP2;ratioP2;P2;SDS_P1;SDS_P2;PMS_P1;PMS_P2;Temp;Humidity;BMP_temperature;BMP_pressure;BME280_temperature;BME280_humidity;BME280_pressure;Samples;Min_cycle;Max_cycle;Signal;HPM_P1;HPM_P2
2022/04/11 00:02:16;;;;;;;9.02;5.53;;;;;;;2.52;76.94;100711.09;4518215;31;20530;-71
2022/04/11 00:04:43;;;;;;;12.07;6.40;;;;;;;2.53;76.88;100702.47;4518186;31;20573;-72
2022/04/11 00:07:10;;;;;;;5.75;4.60;;;;;;;2.42;77.32;100710.84;4518365;31;20103;-71
2022/04/11 00:09:38;;;;;;;5.25;4.07;;;;;;;2.42;77.51;100713.44;4518277;31;20174;-72
2022/04/11 00:12:06;;;;;;;8.77;4.65;;;;;;;2.38;77.50;100707.28;4517895;31;20730;-72
2022/04/11 00:14:33;;;;;;;9.45;4.55;;;;;;;2.38;77.68;100704.66;4518118;31;20443;-71
2022/04/11 00:17:00;;;;;;;11.02;6.45;;;;;;;2.32;78.29;100712.31;4518059;31;20167;-72
2022/04/11 00:19:28;;;;;;;12.52;5.97;;;;;;;2.23;78.75;100710.34;4517962;31;20663;-71
2022/04/11 00:21:55;;;;;;;7.12;4.20;;;;;;;2.24;78.88;100719.03;4517882;31;20105;-72
2022/04/11 00:24:22;;;;;;;3.95;3.37;;;;;;;2.21;79.37;100719.81;4518094;31;20092;-72
2022/04/11 00:26:49;;;;;;;6.47;3.65;;;;;;;2.15;80.29;100725.72;4517960;31;20084;-72
2022/04/11 00:29:16;;;;;;;9.40;5.95;;;;;;;2.14;79.61;100721.34;4517972;31;20218;-71
2022/04/11 00:31:44;;;;;;;10.63;6.28;;;;;;;2.22;78.99;100721.56;4518100;31;20087;-71
2022/04/11 00:34:11;;;;;;;7.93;5.40;;;;;;;2.21;79.07;100726.75;4517995;31;20088;-72
2022/04/11 00:36:39;;;;;;;6.97;4.60;;;;;;;2.10;80.26;100729.91;4517824;31;20114;-72
2022/04/11 00:39:06;;;;;;;9.90;4.90;;;;;;;2.04;79.70;100727.12;4517791;31;20145;-71
2022/04/11 00:41:33;;;;;;;3.97;3.58;;;;;;;2.04;79.54;100727.12;4518030;31;20129;-72
2022/04/11 00:44:00;;;;;;;14.95;8.55;;;;;;;2.04;79.67;100726.25;4517895;31;20083;-72
2022/04/11 00:46:27;;;;;;;15.98;8.98;;;;;;;2.06;79.55;100735.87;4517860;31;20080;-71
2022/04/11 00:48:55;;;;;;;17.60;8.70;;;;;;;2.12;79.30;100733.44;4518034;31;20535;-72
2022/04/11 00:51:23;;;;;;;13.90;8.90;;;;;;;2.05;79.83;100731.53;4517653;31;20754;-72
2022/04/11 00:53:53;;;;;;;16.42;8.98;;;;;;;2.08;79.80;100730.69;4517823;31;20390;-71
2022/04/11 00:56:21;;;;;;;11.23;6.18;;;;;;;2.03;80.07;100725.37;4517910;31;20590;-72
2022/04/11 00:58:48;;;;;;;18.42;10.02;;;;;;;2.11;79.68;100733.41;4517774;31;20135;-71
2022/04/11 01:01:16;;;;;;;12.30;5.82;;;;;;;2.10;79.56;100736.84;4517700;31;20075;-72
2022/04/11 01:03:44;;;;;;;14.00;7.75;;;;;;;2.11;79.51;100736.00;4517973;31;20099;-72
2022/04/11 01:06:12;;;;;;;10.35;4.68;;;;;;;2.10;79.80;100736.84;4518145;31;20091;-71
2022/04/11 01:08:39;;;;;;;10.27;6.15;;;;;;;2.15;79.69;100737.84;4517765;31;20084;-71
2022/04/11 01:11:06;;;;;;;9.90;5.72;;;;;;;2.09;79.65;100742.88;4517670;31;20143;-72
2022/04/11 01:13:34;;;;;;;10.07;5.80;;;;;;;2.09;79.68;100735.97;4517926;31;20095;-71
2022/04/11 01:16:04;;;;;;;8.32;5.78;;;;;;;2.05;79.51;100739.31;4517873;31;20091;-72
2022/04/11 01:18:34;;;;;;;8.38;4.40;;;;;;;1.95;80.45;100737.28;4517969;31;20117;-72
2022/04/11 01:21:08;;;;;;;5.70;4.20;;;;;;;1.82;80.58;100732.56;4517632;31;20408;-72
2022/04/11 01:23:36;;;;;;;6.40;4.10;;;;;;;1.82;81.15;100742.97;4517681;31;20441;-72
2022/04/11 01:26:06;;;;;;;7.97;4.55;;;;;;;1.79;81.77;100742.88;4517749;31;20178;-71
2022/04/11 01:28:37;;;;;;;10.35;5.07;;;;;;;1.76;81.33;100746.25;4517838;31;20560;-72
2022/04/11 01:31:04;;;;;;;10.48;5.93;;;;;;;1.80;80.85;100755.94;4517730;31;20098;-72
2022/04/11 01:33:33;;;;;;;11.88;5.93;;;;;;;1.74;81.39;100760.06;4517564;31;20443;-72
2022/04/11 01:36:00;;;;;;;6.55;4.72;;;;;;;1.72;81.73;100761.72;4517800;31;20195;-72
2022/04/11 01:38:28;;;;;;;9.15;4.28;;;;;;;1.68;81.98;100764.22;4517671;31;20178;-72
2022/04/11 01:40:57;;;;;;;4.57;3.60;;;;;;;1.67;82.44;100766.78;4517817;31;20462;-71
2022/04/11 01:43:25;;;;;;;4.72;3.62;;;;;;;1.67;83.11;100767.66;4517483;31;20147;-72
2022/04/11 01:45:53;;;;;;;9.73;4.18;;;;;;;1.58;82.59;100776.88;4517436;31;20151;-72
2022/04/11 01:48:21;;;;;;;10.82;5.45;;;;;;;1.58;83.41;100774.28;4517622;31;20551;-72
2022/04/11 01:50:48;;;;;;;10.40;6.22;;;;;;;1.55;82.62;100779.37;4517300;31;20111;-72
2022/04/11 01:53:18;;;;;;;5.57;3.83;;;;;;;1.57;82.24;100772.53;4517508;31;20079;-72
2022/04/11 01:55:46;;;;;;;4.72;3.97;;;;;;;1.59;83.90;100771.75;4517596;31;20430;-72
2022/04/11 01:58:14;;;;;;;7.32;4.57;;;;;;;1.56;85.08;100781.16;4517385;31;20091;-71
2022/04/11 02:00:42;;;;;;;14.13;5.20;;;;;;;1.34;86.22;100782.19;4517395;31;20083;-71
2022/04/11 02:03:10;;;;;;;6.80;4.75;;;;;;;1.19;86.82;100783.47;4516463;31;20170;-72
2022/04/11 02:05:40;;;;;;;9.07;5.55;;;;;;;1.00;87.79;100785.41;4517432;31;20126;-72
2022/04/11 02:08:10;;;;;;;8.00;4.72;;;;;;;0.85;89.05;100788.34;4517187;31;20146;-71
2022/04/11 02:10:39;;;;;;;6.72;4.55;;;;;;;0.67;90.22;100783.44;4517444;31;20075;-71
2022/04/11 02:13:06;;;;;;;7.60;4.90;;;;;;;0.61;90.79;100791.03;4517335;31;20124;-72
2022/04/11 02:15:34;;;;;;;6.55;4.82;;;;;;;0.48;91.57;100790.56;4517043;31;20098;-72
2022/04/11 02:18:02;;;;;;;11.30;5.72;;;;;;;0.44;92.70;100788.72;4517098;31;20173;-71
2022/04/11 02:20:30;;;;;;;5.95;4.97;;;;;;;0.38;92.93;100788.47;4516862;31;20076;-71
2022/04/11 02:22:59;;;;;;;7.45;5.32;;;;;;;0.36;93.64;100797.06;4517073;31;20436;-72
2022/04/11 02:25:30;;;;;;;7.70;5.57;;;;;;;0.32;94.09;100803.84;4517099;31;20095;-71
2022/04/11 02:27:58;;;;;;;7.90;5.75;;;;;;;0.23;93.91;100796.59;4517215;31;20111;-72
2022/04/11 02:30:27;;;;;;;8.82;5.32;;;;;;;0.23;95.11;100795.72;4517069;31;20182;-72
2022/04/11 02:32:55;;;;;;;9.30;5.40;;;;;;;0.17;94.79;100805.84;4517048;31;20481;-72
2022/04/11 02:35:23;;;;;;;8.77;5.72;;;;;;;0.18;94.66;100810.22;4516786;31;20122;-71
2022/04/11 02:37:50;;;;;;;10.23;5.10;;;;;;;0.16;93.85;100804.09;4517006;31;20223;-72
2022/04/11 02:40:19;;;;;;;7.90;5.30;;;;;;;0.03;94.35;100796.69;4516870;31;20471;-72
2022/04/11 02:42:48;;;;;;;7.25;5.40;;;;;;;-0.13;95.27;100798.72;4516937;31;20152;-72
2022/04/11 02:45:16;;;;;;;7.75;5.25;;;;;;;-0.20;95.82;100804.47;4516658;31;20511;-72
2022/04/11 02:47:44;;;;;;;12.00;7.78;;;;;;;-0.30;96.51;100811.00;4516803;31;20166;-72
2022/04/11 02:50:13;;;;;;;12.25;8.23;;;;;;;-0.31;97.08;100804.06;4516818;31;20166;-72
2022/04/11 02:52:40;;;;;;;11.05;7.55;;;;;;;-0.35;98.92;100806.50;4516755;31;20485;-72
2022/04/11 02:55:09;;;;;;;8.68;6.05;;;;;;;-0.26;98.55;100812.00;4516706;31;20087;-71
2022/04/11 02:57:39;;;;;;;8.40;6.20;;;;;;;-0.25;98.45;100811.19;4516793;31;20504;-72
2022/04/11 03:00:09;;;;;;;7.70;5.53;;;;;;;-0.12;98.08;100809.94;4516619;31;20539;-71
2022/04/11 03:02:38;;;;;;;11.20;5.20;;;;;;;-0.05;97.05;100801.59;4516799;31;20539;-71
2022/04/11 03:05:06;;;;;;;19.17;5.15;;;;;;;-0.03;96.01;100800.81;4516544;31;20434;-72
2022/04/11 03:07:34;;;;;;;7.53;5.18;;;;;;;-0.04;95.76;100801.62;4516665;31;20103;-71
2022/04/11 03:10:01;;;;;;;7.03;4.80;;;;;;;0.15;96.05;100807.53;4516358;31;20461;-72
2022/04/11 03:12:31;;;;;;;6.20;4.90;;;;;;;0.30;95.42;100800.28;4516445;31;20087;-71
2022/04/11 03:14:59;;;;;;;13.00;6.05;;;;;;;0.47;94.34;100799.19;4517477;31;20103;-71
2022/04/11 03:17:27;;;;;;;9.10;5.05;;;;;;;0.62;93.32;100803.16;4518916;31;20130;-72
2022/04/11 03:19:54;;;;;;;6.75;5.03;;;;;;;0.80;91.94;100801.19;4518588;31;20147;-72
2022/04/11 03:22:21;;;;;;;5.53;4.62;;;;;;;0.97;91.53;100806.06;4518371;31;20079;-71
2022/04/11 03:24:50;;;;;;;6.82;4.85;;;;;;;1.07;90.41;100805.56;4518681;31;20434;-72
2022/04/11 03:27:17;;;;;;;4.70;4.12;;;;;;;1.17;89.93;100798.12;4518742;31;20102;-71
2022/04/11 03:29:44;;;;;;;4.82;4.18;;;;;;;1.18;89.71;100809.38;4518488;31;20083;-71
2022/04/11 03:32:13;;;;;;;4.62;4.20;;;;;;;1.18;89.33;100810.25;4518645;31;20095;-72
2022/04/11 03:34:40;;;;;;;6.37;4.78;;;;;;;1.19;89.13;100808.53;4518535;31;20092;-72
2022/04/11 03:37:07;;;;;;;7.62;4.65;;;;;;;1.19;89.39;100821.50;4518556;31;20160;-72
2022/04/11 03:39:35;;;;;;;5.65;4.18;;;;;;;1.17;89.63;100821.47;4518511;31;20154;-72
2022/04/11 03:42:03;;;;;;;6.30;4.50;;;;;;;1.14;89.37;100821.38;4518280;31;20526;-71
2022/04/11 03:44:31;;;;;;;7.32;4.18;;;;;;;1.15;89.64;100832.63;4518542;31;20099;-71
2022/04/11 03:46:59;;;;;;;5.57;4.05;;;;;;;1.16;89.72;100832.66;4518303;31;20146;-71
2022/04/11 03:49:27;;;;;;;7.28;4.35;;;;;;;1.14;89.45;100833.47;4518285;31;20352;-71
2022/04/11 03:51:55;;;;;;;5.18;4.35;;;;;;;1.16;89.26;100839.56;4516526;31;20100;-72
2022/04/11 03:54:23;;;;;;;8.32;4.20;;;;;;;1.10;89.67;100840.28;4518079;31;20113;-72
2022/04/11 03:56:50;;;;;;;5.82;4.15;;;;;;;1.06;90.09;100850.47;4503161;31;20162;-72
2022/04/11 03:59:17;;;;;;;6.45;3.97;;;;;;;1.04;90.41;100850.44;4506376;31;20927;-72
2022/04/11 04:01:45;;;;;;;5.82;3.58;;;;;;;1.03;89.76;100842.62;4503157;31;20514;-72
2022/04/11 04:04:13;;;;;;;7.55;4.50;;;;;;;1.03;90.49;100847.81;4502979;31;20088;-72
2022/04/11 04:06:41;;;;;;;6.55;4.18;;;;;;;1.10;89.94;100844.59;4502438;31;20690;-71
2022/04/11 04:09:09;;;;;;;7.50;4.10;;;;;;;1.09;89.77;100853.19;4502635;31;20110;-71
2022/04/11 04:11:36;;;;;;;8.00;4.82;;;;;;;1.12;89.77;100854.16;4502811;31;20088;-71
2022/04/11 04:14:04;;;;;;;8.13;4.37;;;;;;;1.04;91.28;100860.81;4511345;31;20155;-71
2022/04/11 04:16:32;;;;;;;7.12;4.30;;;;;;;1.06;90.56;100853.06;4488056;31;20115;-72
2022/04/11 04:19:00;;;;;;;4.93;4.37;;;;;;;1.05;90.86;100859.09;4502397;31;20079;-71
2022/04/11 04:21:27;;;;;;;11.77;4.40;;;;;;;0.95;91.47;100856.22;4503691;31;81030;-71
2022/04/11 04:23:54;;;;;;;4.82;4.18;;;;;;;0.95;92.27;100866.59;4517319;31;20103;-71
2022/04/11 04:26:22;;;;;;;5.43;3.92;;;;;;;0.92;92.26;100870.78;4518399;31;20154;-71
2022/04/11 04:28:50;;;;;;;5.18;4.05;;;;;;;0.89;92.80;100870.69;4511473;31;20509;-72
2022/04/11 04:31:18;;;;;;;7.72;3.80;;;;;;;0.86;93.32;100870.56;4509953;31;20122;-72
2022/04/11 04:33:46;;;;;;;7.07;4.12;;;;;;;1.01;91.83;100865.03;4502980;31;20604;-72
2022/04/11 04:36:13;;;;;;;7.15;4.30;;;;;;;1.15;91.48;100868.97;4502978;31;20095;-71
2022/04/11 04:38:41;;;;;;;9.30;6.00;;;;;;;1.29;90.30;100877.22;4502955;31;20088;-71
2022/04/11 04:41:08;;;;;;;14.45;5.70;;;;;;;1.24;91.21;100869.28;4502920;31;20092;-71
2022/04/11 04:43:35;;;;;;;4.95;3.80;;;;;;;1.21;91.48;100879.56;4488126;31;20099;-72
2022/04/11 04:46:03;;;;;;;8.40;4.40;;;;;;;1.42;89.91;100888.06;4502665;31;20108;-72
2022/04/11 04:48:30;;;;;;;7.10;3.83;;;;;;;1.54;89.19;100891.91;4502604;31;20122;-72
2022/04/11 04:50:58;;;;;;;10.10;4.57;;;;;;;1.70;88.72;100895.84;4502225;31;20122;-71
2022/04/11 04:53:26;;;;;;;6.35;4.15;;;;;;;1.71;88.71;100892.44;4505470;31;20118;-72
2022/04/11 04:55:56;;;;;;;8.48;4.05;;;;;;;1.80;87.54;100903.09;4518345;31;20099;-72
2022/04/11 04:58:23;;;;;;;7.80;3.80;;;;;;;1.87;86.98;100894.69;4518870;31;20190;-71
2022/04/11 05:00:51;;;;;;;4.40;3.37;;;;;;;1.98;86.44;100897.59;4518766;31;20092;-72
2022/04/11 05:03:19;;;;;;;7.12;4.00;;;;;;;2.07;85.97;100903.09;4518551;31;20129;-71
2022/04/11 05:05:47;;;;;;;8.77;3.70;;;;;;;2.15;85.00;100899.00;4518786;31;20154;-71
2022/04/11 05:08:14;;;;;;;6.85;3.40;;;;;;;2.19;84.72;100912.97;4518526;31;20177;-72
2022/04/11 05:10:42;;;;;;;8.40;3.55;;;;;;;2.32;83.85;100910.81;4518608;31;20110;-72
2022/04/11 05:13:09;;;;;;;7.78;3.35;;;;;;;2.34;83.99;100908.25;4518516;31;20129;-72
2022/04/11 05:15:39;;;;;;;5.15;3.92;;;;;;;2.38;83.67;100911.00;4518324;31;20107;-72
2022/04/11 05:18:08;;;;;;;4.30;3.15;;;;;;;2.50;82.49;100912.19;4518631;31;20420;-72
2022/04/11 05:20:36;;;;;;;7.82;3.40;;;;;;;2.60;82.55;100914.22;4517804;31;20391;-72
2022/04/11 05:23:03;;;;;;;6.78;4.20;;;;;;;2.60;82.01;100919.41;4517645;31;20113;-72
2022/04/11 05:25:31;;;;;;;6.80;4.32;;;;;;;2.69;81.67;100913.62;4518124;31;20121;-72
2022/04/11 05:27:59;;;;;;;6.82;3.55;;;;;;;2.73;82.62;100908.53;4518588;31;20481;-72
2022/04/11 05:30:27;;;;;;;8.85;4.00;;;;;;;2.85;81.00;100913.19;4518344;31;20095;-72
2022/04/11 05:32:55;;;;;;;15.13;6.47;;;;;;;2.92;81.12;100911.63;4518310;31;20114;-72
2022/04/11 05:35:22;;;;;;;16.85;7.00;;;;;;;3.02;79.59;100911.06;4518274;31;20095;-72
2022/04/11 05:37:51;;;;;;;37.85;13.55;;;;;;;3.05;79.52;100916.34;4517082;31;20091;-72
2022/04/11 05:40:19;;;;;;;20.10;7.45;;;;;;;3.14;79.77;100908.75;4518164;31;20083;-72
2022/04/11 05:42:46;;;;;;;25.15;9.68;;;;;;;3.33;78.40;100905.81;4518241;31;20169;-72
2022/04/11 05:45:14;;;;;;;24.67;8.63;;;;;;;3.41;78.05;100910.34;4518181;31;20418;-72
2022/04/11 05:47:41;;;;;;;20.20;8.45;;;;;;;3.50;77.86;100913.19;4512633;31;20121;-72
2022/04/11 05:50:09;;;;;;;10.23;4.45;;;;;;;3.61;77.54;100913.47;4508356;31;20123;-71
2022/04/11 05:52:37;;;;;;;12.15;5.45;;;;;;;3.72;76.96;100918.09;4502135;31;20122;-71
2022/04/11 05:55:05;;;;;;;7.80;3.85;;;;;;;3.89;76.79;100915.88;4502381;31;20142;-72
2022/04/11 05:57:32;;;;;;;35.10;15.27;;;;;;;3.97;75.61;100918.66;4502087;31;20096;-72
2022/04/11 05:59:59;;;;;;;8.20;5.00;;;;;;;4.02;74.45;100920.53;4502042;31;20207;-71
2022/04/11 06:02:27;;;;;;;11.82;5.20;;;;;;;4.04;74.74;100920.56;4501949;31;20141;-71
2022/04/11 06:04:55;;;;;;;37.03;12.93;;;;;;;4.13;73.71;100932.94;4502126;31;20142;-72
2022/04/11 06:07:27;;;;;;;16.95;6.78;;;;;;;4.19;73.42;100925.25;4501851;31;20502;-72
2022/04/11 06:09:55;;;;;;;7.40;4.00;;;;;;;4.28;72.95;100926.34;4502196;31;20095;-71
2022/04/11 06:12:24;;;;;;;3.78;2.78;;;;;;;4.37;73.01;100924.78;4502202;31;20161;-72
2022/04/11 06:14:55;;;;;;;6.32;3.78;;;;;;;4.38;72.96;100923.91;4502070;31;20148;-72
2022/04/11 06:17:25;;;;;;;2.60;2.37;;;;;;;4.55;71.37;100913.00;4502210;31;20487;-71
2022/04/11 06:19:55;;;;;;;4.22;2.67;;;;;;;4.58;71.11;100917.41;4505397;31;20356;-71
2022/04/11 06:22:24;;;;;;;4.87;2.70;;;;;;;4.64;71.13;100914.06;4507877;31;20116;-70
2022/04/11 06:24:59;;;;;;;9.80;5.30;;;;;;;4.64;71.17;100912.31;4512467;31;20128;-69
2022/04/11 06:27:28;;;;;;;6.37;3.83;;;;;;;4.77;69.88;100905.59;4516083;31;20129;-69
2022/04/11 06:29:58;;;;;;;7.72;3.12;;;;;;;4.88;69.57;100911.06;4501866;31;20103;-69
2022/04/11 06:32:27;;;;;;;6.70;3.42;;;;;;;5.00;68.93;100908.69;4501752;31;20095;-69
2022/04/11 06:34:55;;;;;;;10.93;3.75;;;;;;;5.06;68.06;100903.59;4501944;31;20107;-70
2022/04/11 06:37:25;;;;;;;4.20;3.05;;;;;;;5.14;68.56;100901.97;4502005;31;20163;-70
2022/04/11 06:39:54;;;;;;;10.20;3.45;;;;;;;5.23;68.69;100907.38;4505000;31;20100;-70
2022/04/11 06:42:22;;;;;;;5.18;3.50;;;;;;;5.39;67.43;100907.66;4516915;31;20163;-71
2022/04/11 06:44:49;;;;;;;4.30;2.50;;;;;;;5.42;67.21;100910.31;4517675;31;20127;-69
2022/04/11 06:47:18;;;;;;;7.57;3.28;;;;;;;5.55;68.36;100908.78;4517448;31;20118;-70
2022/04/11 06:49:46;;;;;;;5.20;2.87;;;;;;;5.57;66.86;100907.09;4518977;31;20144;-70
2022/04/11 06:52:13;;;;;;;6.43;3.42;;;;;;;5.59;68.17;100902.78;4519465;31;20095;-71
2022/04/11 06:54:40;;;;;;;6.53;3.30;;;;;;;5.67;66.01;100907.25;4519452;31;20122;-70
2022/04/11 06:57:08;;;;;;;5.37;2.80;;;;;;;5.75;66.48;100902.16;4519519;31;20451;-70
2022/04/11 06:59:35;;;;;;;5.70;3.08;;;;;;;5.92;65.79;100898.09;4519375;31;20095;-70
2022/04/11 07:02:02;;;;;;;3.10;2.53;;;;;;;5.95;65.15;100903.38;4519229;31;20114;-70
2022/04/11 07:04:30;;;;;;;5.45;2.35;;;;;;;6.02;65.52;100912.22;4519428;31;20178;-70
2022/04/11 07:06:57;;;;;;;4.65;2.60;;;;;;;6.15;65.49;100910.66;4519518;31;20076;-70
2022/04/11 07:09:25;;;;;;;4.03;2.90;;;;;;;6.11;65.04;100909.75;4518947;31;20824;-70
2022/04/11 07:11:52;;;;;;;2.62;2.37;;;;;;;6.30;63.62;100916.09;4504084;31;20103;-70
2022/04/11 07:14:20;;;;;;;5.90;2.62;;;;;;;6.26;63.74;100910.81;4519196;31;20911;-70
2022/04/11 07:16:49;;;;;;;3.97;2.72;;;;;;;6.36;63.98;100912.66;4513053;31;20084;-69
2022/04/11 07:19:16;;;;;;;8.02;2.67;;;;;;;6.33;63.86;100908.31;4502735;31;20135;-70
2022/04/11 07:21:46;;;;;;;5.80;2.67;;;;;;;6.36;63.91;100912.66;4505032;31;20083;-70
2022/04/11 07:24:13;;;;;;;2.92;2.60;;;;;;;6.39;65.00;100913.59;4518839;31;20099;-70
2022/04/11 07:26:41;;;;;;;4.62;3.00;;;;;;;6.49;64.25;100917.22;4505593;31;20087;-70
2022/04/11 07:29:09;;;;;;;3.10;2.70;;;;;;;6.66;65.87;100923.56;4506547;31;20098;-70
2022/04/11 07:31:36;;;;;;;4.10;2.75;;;;;;;6.81;63.20;100917.63;4510263;31;20087;-70
2022/04/11 07:34:04;;;;;;;3.85;2.92;;;;;;;6.77;63.78;100912.34;4503321;31;20163;-69
2022/04/11 07:36:31;;;;;;;3.97;2.72;;;;;;;6.88;64.33;100908.97;4503297;31;20084;-69
2022/04/11 07:38:58;;;;;;;7.18;2.90;;;;;;;7.08;63.26;100905.72;4502991;31;20091;-70
2022/04/11 07:41:26;;;;;;;4.90;2.65;;;;;;;7.07;63.13;100906.59;4492693;31;20104;-69
2022/04/11 07:43:54;;;;;;;8.70;2.58;;;;;;;7.23;63.43;100918.09;4501565;31;20164;-69
2022/04/11 07:46:21;;;;;;;5.95;2.60;;;;;;;7.47;62.52;100915.72;4502039;31;20091;-70
2022/04/11 07:48:49;;;;;;;2.72;2.45;;;;;;;7.57;60.85;100922.81;4503847;31;20096;-70
2022/04/11 07:51:16;;;;;;;3.75;2.55;;;;;;;7.59;60.39;100909.69;4507320;31;20111;-69
2022/04/11 07:53:43;;;;;;;5.72;2.40;;;;;;;7.59;60.26;100914.94;4511007;31;20103;-70
2022/04/11 07:56:10;;;;;;;2.90;2.47;;;;;;;7.69;59.71;100900.16;4511686;31;20151;-71
2022/04/11 07:58:37;;;;;;;2.03;1.83;;;;;;;7.89;59.80;100907.31;4503134;31;20456;-69
2022/04/11 08:01:05;;;;;;;2.80;2.30;;;;;;;7.98;58.96;100911.75;4503214;31;20100;-69
2022/04/11 08:03:32;;;;;;;4.78;2.00;;;;;;;8.04;58.90;100909.16;4509701;31;20098;-70
2022/04/11 08:05:59;;;;;;;1.62;1.52;;;;;;;8.24;58.60;100914.56;4506719;31;20472;-69
2022/04/11 08:08:27;;;;;;;2.87;1.60;;;;;;;8.38;55.27;100917.31;4503549;31;20084;-69
2022/04/11 08:10:56;;;;;;;4.30;1.90;;;;;;;8.11;55.01;100921.47;4509736;31;20546;-69
2022/04/11 08:13:23;;;;;;;3.60;1.95;;;;;;;8.09;56.00;100917.97;4490717;31;20500;-70
2022/04/11 08:15:50;;;;;;;2.92;1.73;;;;;;;7.95;56.04;100919.63;4504582;31;20175;-70
2022/04/11 08:18:18;;;;;;;5.75;2.20;;;;;;;8.07;56.42;100909.19;4510035;31;20742;-70
2022/04/11 08:20:45;;;;;;;3.35;1.75;;;;;;;8.46;55.96;100915.59;4513621;31;20146;-70
2022/04/11 08:23:12;;;;;;;5.68;2.15;;;;;;;8.57;55.64;100905.13;4512608;31;20095;-70
2022/04/11 08:25:40;;;;;;;3.78;2.50;;;;;;;8.56;54.77;100917.41;4518030;31;20157;-69
2022/04/11 08:28:07;;;;;;;2.75;2.17;;;;;;;8.56;54.59;100920.03;4518655;31;20091;-69
2022/04/11 08:30:34;;;;;;;2.42;2.15;;;;;;;8.65;54.69;100919.19;4517156;31;20164;-69
2022/04/11 08:33:01;;;;;;;3.83;2.30;;;;;;;8.63;54.90;100914.81;4517439;31;20123;-69
2022/04/11 08:35:29;;;;;;;5.18;2.47;;;;;;;8.83;53.67;100908.75;4517307;31;20199;-69
2022/04/11 08:37:56;;;;;;;3.55;2.05;;;;;;;9.07;56.31;100920.22;4517621;31;20121;-70
2022/04/11 08:40:23;;;;;;;4.68;1.90;;;;;;;9.12;54.06;100918.50;4517717;31;20159;-69
2022/04/11 08:42:51;;;;;;;2.87;1.90;;;;;;;9.33;54.22;100915.03;4517920;31;20115;-70
2022/04/11 08:45:20;;;;;;;4.22;2.03;;;;;;;9.50;53.80;100912.41;4517857;31;20147;-70
2022/04/11 08:47:56;;;;;;;2.83;2.53;;;;;;;9.84;52.10;100918.56;4518543;31;20087;-70
2022/04/11 08:50:27;;;;;;;3.28;1.90;;;;;;;9.66;51.84;100908.91;4518452;31;20487;-70
2022/04/11 08:52:56;;;;;;;4.25;2.35;;;;;;;9.90;52.29;100904.53;4518352;31;20104;-70
2022/04/11 08:55:23;;;;;;;4.32;2.20;;;;;;;10.27;50.79;100908.00;4518691;31;20095;-69
2022/04/11 08:57:58;;;;;;;2.85;2.50;;;;;;;10.44;50.74;100907.97;4517964;31;20175;-70
2022/04/11 09:00:26;;;;;;;10.65;1.92;;;;;;;10.61;49.69;100905.28;4517084;31;20095;-70
2022/04/11 09:02:53;;;;;;;3.92;2.20;;;;;;;10.31;49.32;100911.50;4508279;31;20107;-70
2022/04/11 09:05:23;;;;;;;4.03;2.10;;;;;;;9.87;50.12;100912.44;4517382;31;20139;-70
2022/04/11 09:07:58;;;;;;;4.97;2.00;;;;;;;10.11;50.97;100912.41;4506067;31;20104;-70
2022/04/11 09:10:32;;;;;;;6.72;2.08;;;;;;;10.21;49.83;100907.97;4501301;31;20084;-70
2022/04/11 09:13:01;;;;;;;3.72;2.17;;;;;;;10.19;49.68;100904.47;4507570;31;20169;-70
2022/04/11 09:15:37;;;;;;;8.32;2.20;;;;;;;10.25;49.69;100901.84;4516935;31;20451;-70
2022/04/11 09:18:05;;;;;;;3.42;2.05;;;;;;;10.12;50.12;100903.62;4516237;31;20118;-69
2022/04/11 09:20:32;;;;;;;3.05;1.85;;;;;;;10.20;50.50;100895.69;4511624;31;20212;-70
2022/04/11 09:22:59;;;;;;;5.57;1.67;;;;;;;10.16;48.96;100909.75;4508512;31;20171;-70
2022/04/11 09:25:31;;;;;;;4.00;2.12;;;;;;;9.94;48.93;100899.25;4502396;31;20113;-69
2022/04/11 09:28:12;;;;;;;5.47;2.65;;;;;;;9.61;48.51;100904.50;4503319;31;20091;-68
2022/04/11 09:30:43;;;;;;;3.97;1.70;;;;;;;9.45;50.14;100901.87;4506626;31;20112;-70
2022/04/11 09:33:12;;;;;;;2.47;1.60;;;;;;;9.96;47.70;100897.47;4512916;31;20583;-70
2022/04/11 09:35:44;;;;;;;1.58;1.48;;;;;;;10.13;47.74;100899.22;4507952;31;20095;-70
2022/04/11 09:38:16;;;;;;;2.30;1.60;;;;;;;10.35;48.36;100900.94;4507032;31;20098;-70
2022/04/11 09:40:50;;;;;;;2.53;1.95;;;;;;;10.59;46.71;100905.25;4509654;31;20087;-70
2022/04/11 09:43:29;;;;;;;4.15;1.62;;;;;;;10.77;46.24;100889.38;4507159;31;20107;-70
2022/04/11 09:46:00;;;;;;;3.95;2.00;;;;;;;10.63;45.64;100893.81;4505178;31;20652;-70
2022/04/11 09:48:32;;;;;;;4.30;1.60;;;;;;;10.58;46.86;100889.47;4506314;31;20126;-70
2022/04/11 09:51:00;;;;;;;3.72;1.45;;;;;;;10.93;45.51;100890.19;4503361;31;20146;-68
2022/04/11 09:53:34;;;;;;;8.77;1.70;;;;;;;11.03;45.03;100887.50;4511910;31;20107;-68
2022/04/11 09:56:04;;;;;;;2.60;1.17;;;;;;;10.57;44.30;100883.34;4501200;31;20075;-68
2022/04/11 09:58:34;;;;;;;2.60;1.30;;;;;;;10.43;44.28;100890.41;4506369;31;20122;-67
2022/04/11 10:01:02;;;;;;;3.87;1.75;;;;;;;10.72;45.05;100880.63;4510632;31;20126;-68
2022/04/11 10:03:31;;;;;;;3.17;1.67;;;;;;;10.79;46.76;100883.25;4502052;31;20091;-67
2022/04/11 10:06:02;;;;;;;2.67;2.25;;;;;;;10.86;45.94;100888.47;4512469;31;20087;-67
2022/04/11 10:08:30;;;;;;;3.37;2.15;;;;;;;10.55;46.45;100892.13;4518002;31;20466;-67
2022/04/11 10:10:58;;;;;;;2.08;1.98;;;;;;;10.26;48.27;100898.34;4517807;31;20143;-70
2022/04/11 10:13:25;;;;;;;4.93;2.40;;;;;;;10.24;47.86;100898.31;4506386;31;20167;-70
2022/04/11 10:15:52;;;;;;;2.40;2.20;;;;;;;10.35;48.90;100893.03;4508888;31;20164;-67
2022/04/11 10:18:26;;;;;;;3.35;2.30;;;;;;;10.48;48.22;100891.25;4501692;31;20108;-67
2022/04/11 10:21:04;;;;;;;4.95;2.25;;;;;;;10.49;47.81;100898.28;4501365;31;20129;-68
2022/04/11 10:24:01;;;;;;;3.17;2.20;;;;;;;10.87;47.30;100897.25;4500750;31;20460;-68
2022/04/11 10:26:43;;;;;;;3.28;2.00;;;;;;;11.27;47.50;100897.00;4501714;31;20683;-68
2022/04/11 10:29:29;;;;;;;3.95;2.30;;;;;;;11.85;44.33;100886.06;4502250;31;20095;-67
2022/04/11 10:32:13;;;;;;;3.58;1.70;;;;;;;12.41;42.24;100885.47;4501459;31;20153;-67
2022/04/11 10:34:52;;;;;;;2.37;1.73;;;;;;;11.46;42.36;100886.34;4502064;31;20742;-67
2022/04/11 10:37:25;;;;;;;3.25;1.90;;;;;;;11.31;44.05;100877.63;4508768;31;20080;-67
2022/04/11 10:40:13;;;;;;;3.72;1.67;;;;;;;11.67;41.85;100876.50;4515953;31;20764;-67
2022/04/11 10:43:05;;;;;;;7.05;1.42;;;;;;;12.16;41.03;100884.00;4515436;31;20125;-68
2022/04/11 10:45:34;;;;;;;2.50;1.65;;;;;;;12.86;39.46;100877.87;4516326;31;20742;-68
2022/04/11 10:48:03;;;;;;;3.10;1.33;;;;;;;11.91;40.02;100886.88;4516499;31;20159;-68
2022/04/11 10:50:34;;;;;;;1.87;1.52;;;;;;;11.18;38.87;100885.66;4516508;31;20095;-68
2022/04/11 10:53:12;;;;;;;1.73;1.60;;;;;;;10.35;39.83;100887.78;4507650;31;20791;-70
2022/04/11 10:56:03;;;;;;;3.78;0.80;;;;;;;10.37;40.44;100880.75;4500733;31;20099;-70
2022/04/11 10:58:51;;;;;;;1.83;1.40;;;;;;;10.46;37.48;100878.09;4500614;31;20692;-70
2022/04/11 11:01:45;;;;;;;1.95;1.35;;;;;;;11.78;38.38;100871.13;4501026;31;20477;-68
2022/04/11 11:04:20;;;;;;;1.87;1.40;;;;;;;12.78;37.18;100868.28;4494201;31;20409;-67
2022/04/11 11:07:24;;;;;;;2.10;1.23;;;;;;;13.45;36.41;100862.03;4499205;31;20115;-68
2022/04/11 11:09:57;;;;;;;4.28;1.60;;;;;;;13.99;35.20;100866.41;4498993;31;20136;-68
2022/04/11 11:12:27;;;;;;;3.97;1.40;;;;;;;15.06;33.70;100866.91;4498919;31;20835;-68
2022/04/11 11:14:55;;;;;;;1.85;1.37;;;;;;;15.57;31.87;100871.88;4498850;31;20099;-68
2022/04/11 11:18:11;;;;;;;1.70;1.20;;;;;;;15.74;31.10;100863.53;4501243;31;20123;-67
2022/04/11 11:20:54;;;;;;;1.52;1.42;;;;;;;16.98;30.83;100862.75;4485706;31;20465;-67
2022/04/11 11:23:31;;;;;;;1.50;1.30;;;;;;;16.88;28.06;100866.59;4499319;31;20441;-67
2022/04/11 11:26:13;;;;;;;1.15;1.10;;;;;;;17.60;28.28;100862.53;4498110;31;20091;-67
2022/04/11 11:28:41;;;;;;;2.47;1.30;;;;;;;15.29;29.78;100861.94;4511677;31;20166;-66
2022/04/11 11:31:12;;;;;;;3.42;1.37;;;;;;;13.62;32.38;100872.34;4515537;31;21008;-66
2022/04/11 11:33:50;;;;;;;5.53;1.80;;;;;;;12.49;35.04;100866.00;4500174;31;20823;-67
2022/04/11 11:36:27;;;;;;;6.97;3.53;;;;;;;14.09;33.39;100860.03;4513024;31;20422;-67
2022/04/11 11:38:54;;;;;;;;;;;;;;;16.56;30.41;100857.75;4508421;31;20159;-67
2022/04/11 11:41:25;;;;;;;2.20;1.77;;;;;;;17.92;28.10;100845.47;4510908;31;20006;-67